Timber Mountain, Nevada Weather observations

Data are for 10 minute period ending at time listed.
 Day   Time   Solar   Ave.   Ave.  Ave.  Vector  Max.   Baro.   Total    
  of    of     Rad.   Air    Rel.  Wind   Wind   Wind  Press.  Precip.   
Year   Day            Temp.  Hum.  Speed  Dir.   Gust                    
2014   (PST)  Kw/m2    F      %     mph   deg.    mph    mb.     in.     
-------------------------------------------------------------------------
 208    7:00   0.18   76.2    30    7.4   124    12.9   816.7    0.00 
 208    8:00   0.41   78.1    28    8.8   144    15.9   817.3    0.00 
 208    9:00   0.65   82.4    22    8.4   142    15.9   817.5    0.00 
 208   10:00   0.77   84.1    22    7.4   151    18.2   817.5    0.00 
 208   11:00   0.78   84.7    22    8.7   180    21.9   817.4    0.00 
 208   12:00   0.86   85.7    22   11.1   229    26.0   817.0    0.00 
 208   13:00   0.58   84.6    22   11.8   236    27.2   816.9    0.00 
 208   14:00   0.74   86.0    20   11.1   224    24.8   816.7    0.00 
 208   15:00   0.72   85.9    20   11.1   232    22.6   816.3    0.00 
 208   16:00   0.50   85.4    20    8.8   237    18.5   816.1    0.00 
 208   17:00   0.48   85.4    20   10.0   163    23.3   816.0    0.00 
 208   18:00   0.17   77.8    29   11.4   139    25.0   816.1    0.00 
 208   19:00   0.03   76.6    28    8.2   109    15.1   816.3    0.00 
 208   20:00   0.00   75.6    28    8.3    98    19.9   816.7    0.00 
 208   21:00   0.00   73.7    34   12.1   109    23.1   817.1    0.00 
 208   22:00   0.00   72.2    41    9.4   108    16.9   817.1    0.00 
 208   23:00   0.00   71.6    41    8.8   103    14.5   817.1    0.00 
 209    0:00   0.00   70.4    41    5.0   108    13.7   817.4    0.00 
 209    1:00   0.00   69.5    42    6.2   111    13.1   817.3    0.00 
 209    2:00   0.00   68.4    44    5.6   117    10.9   817.1    0.00 
 209    3:00   0.00   68.1    45    6.6   110    11.8   817.3    0.00 
 209    4:00   0.00   66.6    49    6.0   120    10.1   817.4    0.00 
 209    5:00   0.00   64.1    61    7.0   117    12.3   817.7    0.00 
 209    6:00   0.02   63.8    62    3.5   120     8.5   818.0    0.00 

Return to Timber Mountain graphs page.


Western Regional Climate Center,wrcc@dri.edu